createdAt,value
2023-05-17T00:01:05.931Z,38.31
2023-05-17T00:03:33.924Z,38.33
2023-05-17T00:06:01.790Z,38.17
2023-05-17T00:08:29.669Z,37.81
2023-05-17T00:10:57.646Z,38.25
2023-05-17T00:13:25.555Z,38.16
2023-05-17T00:15:53.656Z,38.18
2023-05-17T00:18:21.592Z,38.35
2023-05-17T00:20:50.147Z,38.47
2023-05-17T00:23:18.063Z,38.46
2023-05-17T00:25:46.854Z,38.13
2023-05-17T00:28:14.939Z,38.06
2023-05-17T00:30:42.916Z,38.54
2023-05-17T00:33:10.826Z,38.43
2023-05-17T00:35:38.730Z,38.32
2023-05-17T00:38:07.716Z,38.33
2023-05-17T00:40:35.670Z,38.56
2023-05-17T00:43:03.534Z,38.64
2023-05-17T00:45:32.646Z,38.49
2023-05-17T00:48:00.677Z,38.84
2023-05-17T00:50:28.712Z,38.67
2023-05-17T00:52:56.548Z,38.29
2023-05-17T00:55:24.601Z,38.50
2023-05-17T00:57:52.462Z,38.83
2023-05-17T01:00:20.388Z,38.93
2023-05-17T01:02:48.913Z,38.74
2023-05-17T01:05:16.829Z,38.95
2023-05-17T01:07:44.696Z,38.69
2023-05-17T01:10:12.621Z,38.69
2023-05-17T01:12:40.720Z,38.83
2023-05-17T01:15:08.618Z,38.77
2023-05-17T01:17:36.890Z,38.91
2023-05-17T01:20:06.662Z,38.85
2023-05-17T01:22:34.807Z,38.85
2023-05-17T01:25:02.621Z,39.13
2023-05-17T01:27:30.749Z,38.86
2023-05-17T01:29:58.621Z,38.89
2023-05-17T01:32:26.701Z,38.72
2023-05-17T01:34:54.772Z,38.81
2023-05-17T01:37:22.887Z,39.39
2023-05-17T01:39:50.823Z,39.34
2023-05-17T01:42:18.675Z,38.69
2023-05-17T01:44:46.649Z,39.04
2023-05-17T01:47:14.518Z,39.22
2023-05-17T01:49:42.412Z,38.93
2023-05-17T01:52:10.392Z,38.96
2023-05-17T01:54:38.329Z,38.92
2023-05-17T01:57:06.260Z,38.90
2023-05-17T01:59:34.198Z,38.86
2023-05-17T02:02:06.269Z,39.02
2023-05-17T02:04:34.186Z,38.98
2023-05-17T02:07:02.384Z,39.05
2023-05-17T02:09:30.298Z,39.18
2023-05-17T02:11:58.386Z,39.35
2023-05-17T02:14:26.238Z,39.04
2023-05-17T02:16:54.145Z,39.33
2023-05-17T02:19:22.266Z,39.29
2023-05-17T02:21:50.253Z,39.38
2023-05-17T02:24:18.201Z,38.98
2023-05-17T02:26:46.079Z,39.30
2023-05-17T02:29:14.128Z,39.05
2023-05-17T02:31:41.973Z,39.63
2023-05-17T02:34:09.816Z,39.65
2023-05-17T02:36:37.985Z,39.09
2023-05-17T02:39:05.854Z,39.10
2023-05-17T02:41:33.809Z,39.24
2023-05-17T02:44:01.695Z,39.17
2023-05-17T02:46:29.526Z,39.86
2023-05-17T02:48:57.355Z,39.66
2023-05-17T02:51:25.457Z,39.37
2023-05-17T02:53:53.319Z,39.43
2023-05-17T02:56:21.325Z,39.49
2023-05-17T02:58:49.341Z,39.57
2023-05-17T03:01:17.256Z,39.87
2023-05-17T03:03:45.298Z,39.32
2023-05-17T03:06:13.400Z,39.51
2023-05-17T03:08:41.490Z,39.48
2023-05-17T03:11:09.395Z,39.87
2023-05-17T03:13:37.317Z,39.82
2023-05-17T03:16:05.147Z,39.51
2023-05-17T03:18:33.235Z,39.99
2023-05-17T03:21:01.249Z,39.82
2023-05-17T03:23:29.192Z,39.40
2023-05-17T03:25:57.094Z,39.41
2023-05-17T03:28:25.010Z,39.46
2023-05-17T03:30:52.954Z,39.83
2023-05-17T03:33:20.950Z,39.93
2023-05-17T03:35:48.907Z,39.68
2023-05-17T03:38:17.018Z,39.70
2023-05-17T03:40:44.873Z,39.27
2023-05-17T03:43:12.749Z,39.77
2023-05-17T03:45:40.673Z,39.88
2023-05-17T03:48:08.599Z,39.72
2023-05-17T03:50:36.573Z,39.65
2023-05-17T03:53:04.481Z,39.42
2023-05-17T03:55:32.363Z,39.47
2023-05-17T03:58:00.265Z,39.71
2023-05-17T04:00:28.220Z,39.04
2023-05-17T04:02:56.139Z,39.19
2023-05-17T04:05:24.347Z,39.42
2023-05-17T04:07:52.435Z,39.62
2023-05-17T04:10:20.342Z,39.45
2023-05-17T04:12:48.232Z,40.14
2023-05-17T04:15:16.077Z,39.70
2023-05-17T04:17:44.088Z,39.23
2023-05-17T04:20:11.952Z,39.72
2023-05-17T04:22:39.879Z,39.45
2023-05-17T04:25:08.448Z,39.41
2023-05-17T04:27:36.604Z,39.40
2023-05-17T04:30:04.739Z,39.60
2023-05-17T04:32:34.354Z,39.76
2023-05-17T04:35:02.395Z,39.70
2023-05-17T04:37:30.278Z,40.21
2023-05-17T04:39:59.210Z,40.44
2023-05-17T04:42:27.245Z,39.89
2023-05-17T04:44:55.959Z,39.72
2023-05-17T04:47:24.051Z,39.55
2023-05-17T04:49:52.087Z,39.63
2023-05-17T04:52:20.602Z,40.16
2023-05-17T04:54:48.511Z,40.04
2023-05-17T04:57:16.321Z,39.81
2023-05-17T04:59:44.178Z,39.95
2023-05-17T05:02:12.077Z,39.61
2023-05-17T05:04:40.000Z,39.56
2023-05-17T05:07:07.870Z,39.87
2023-05-17T05:09:35.786Z,39.58
2023-05-17T05:12:03.771Z,39.61
2023-05-17T05:14:31.632Z,39.97
2023-05-17T05:16:59.469Z,39.87
2023-05-17T05:19:27.455Z,40.17
2023-05-17T05:21:55.322Z,39.54
2023-05-17T05:24:23.298Z,39.64
2023-05-17T05:26:51.198Z,39.35
2023-05-17T05:29:19.017Z,39.01
2023-05-17T05:31:47.089Z,38.69
2023-05-17T05:34:15.022Z,39.12
2023-05-17T05:36:42.993Z,38.83
2023-05-17T05:39:11.005Z,39.03
2023-05-17T05:41:38.911Z,38.89
2023-05-17T05:44:06.837Z,38.73
2023-05-17T05:46:34.844Z,39.12
2023-05-17T05:49:02.955Z,38.91
2023-05-17T05:51:31.665Z,38.96
2023-05-17T05:54:00.197Z,38.82
2023-05-17T05:56:28.351Z,38.80
2023-05-17T05:58:56.254Z,38.24
2023-05-17T06:01:25.324Z,38.50
2023-05-17T06:03:53.142Z,38.40
2023-05-17T06:06:21.263Z,38.26
2023-05-17T06:08:49.196Z,37.71
2023-05-17T06:11:18.448Z,37.42
2023-05-17T06:13:46.254Z,37.58
2023-05-17T06:16:14.085Z,37.64
2023-05-17T06:18:42.099Z,37.18
2023-05-17T06:21:09.991Z,37.19
2023-05-17T06:23:37.843Z,37.43
2023-05-17T06:26:10.652Z,37.09
2023-05-17T06:28:38.505Z,37.18
2023-05-17T06:31:06.350Z,37.30
2023-05-17T06:33:34.207Z,36.65
2023-05-17T06:38:30.736Z,36.92
2023-05-17T06:40:58.735Z,36.59
2023-05-17T06:43:26.620Z,37.04
2023-05-17T06:45:54.518Z,36.91
2023-05-17T06:48:22.443Z,36.65
2023-05-17T06:50:50.341Z,36.41
2023-05-17T06:53:18.220Z,35.48
2023-05-17T06:55:46.021Z,36.29
2023-05-17T06:58:13.816Z,36.57
2023-05-17T07:00:41.742Z,36.07
2023-05-17T07:03:10.057Z,36.08
2023-05-17T07:05:38.075Z,36.38
2023-05-17T07:08:06.029Z,36.13
2023-05-17T07:10:33.957Z,36.40
2023-05-17T07:13:01.788Z,35.76
2023-05-17T07:15:29.816Z,35.52
2023-05-17T07:17:59.415Z,35.70
2023-05-17T07:20:27.394Z,35.69
2023-05-17T07:22:55.203Z,35.75
2023-05-17T07:25:23.014Z,36.11
2023-05-17T07:27:51.024Z,35.58
2023-05-17T07:30:18.900Z,35.46
2023-05-17T07:32:46.822Z,35.58
2023-05-17T07:35:15.119Z,35.21
2023-05-17T07:37:43.253Z,35.04
2023-05-17T07:40:11.152Z,35.24
2023-05-17T07:42:38.979Z,35.11
2023-05-17T07:45:06.847Z,34.47
2023-05-17T07:47:35.026Z,35.06
2023-05-17T07:50:02.973Z,34.04
2023-05-17T07:52:31.048Z,35.36
2023-05-17T07:54:58.861Z,35.28
2023-05-17T07:57:29.584Z,35.16
2023-05-17T07:59:57.419Z,35.13
2023-05-17T08:02:25.324Z,35.29
2023-05-17T08:04:53.395Z,35.52
2023-05-17T08:07:21.285Z,34.04
2023-05-17T08:09:49.160Z,34.17
2023-05-17T08:12:18.993Z,34.93
2023-05-17T08:14:46.859Z,34.74
2023-05-17T08:17:14.710Z,35.09
2023-05-17T08:19:42.756Z,35.94
2023-05-17T08:22:10.784Z,34.69
2023-05-17T08:24:38.618Z,35.15
2023-05-17T08:27:06.432Z,35.52
2023-05-17T08:29:34.282Z,35.49
2023-05-17T08:32:02.119Z,35.14
2023-05-17T08:34:29.977Z,34.50
2023-05-17T08:36:57.842Z,35.05
2023-05-17T08:39:25.791Z,34.53
2023-05-17T08:41:53.813Z,35.57
2023-05-17T08:44:21.630Z,35.43
2023-05-17T08:46:52.462Z,35.85
2023-05-17T08:49:22.108Z,34.60
2023-05-17T08:51:50.080Z,35.38
2023-05-17T08:54:17.848Z,35.59
2023-05-17T08:56:45.722Z,35.40
2023-05-17T08:59:13.650Z,35.46
2023-05-17T09:01:41.955Z,35.85
2023-05-17T09:04:10.090Z,35.84
2023-05-17T09:06:38.208Z,35.60
2023-05-17T09:09:07.532Z,35.74
2023-05-17T09:11:35.404Z,35.61
2023-05-17T09:14:03.359Z,35.77
2023-05-17T09:16:31.399Z,35.34
2023-05-17T09:18:59.414Z,35.07
2023-05-17T09:21:27.539Z,35.18
2023-05-17T09:24:05.406Z,34.43
2023-05-17T09:26:35.506Z,34.28
2023-05-17T09:29:03.351Z,35.41
2023-05-17T09:31:31.641Z,35.05
2023-05-17T09:33:59.529Z,35.28
2023-05-17T09:36:27.385Z,35.05
2023-05-17T09:38:55.209Z,35.47
2023-05-17T09:41:23.559Z,34.80
2023-05-17T09:43:51.538Z,35.13
2023-05-17T09:46:19.545Z,34.88
2023-05-17T09:48:48.033Z,34.87
2023-05-17T09:51:15.976Z,35.60
2023-05-17T09:53:43.835Z,35.13
2023-05-17T09:56:12.180Z,34.93
2023-05-17T09:58:40.009Z,35.29
2023-05-17T10:01:08.716Z,35.82
2023-05-17T10:03:36.817Z,35.51
2023-05-17T10:06:05.748Z,35.41
2023-05-17T10:08:33.587Z,35.47
2023-05-17T10:11:01.952Z,35.62
2023-05-17T10:13:29.757Z,35.60
2023-05-17T10:15:57.624Z,35.02
2023-05-17T10:18:27.826Z,35.09
2023-05-17T10:20:55.945Z,35.01
2023-05-17T10:23:24.003Z,34.64
2023-05-17T10:25:51.917Z,35.47
2023-05-17T10:28:19.813Z,34.61
2023-05-17T10:30:47.806Z,34.50
2023-05-17T10:33:16.560Z,35.01
2023-05-17T10:35:45.452Z,34.33
2023-05-17T10:38:13.682Z,35.15
2023-05-17T10:40:42.002Z,35.09
2023-05-17T10:43:09.826Z,35.17
2023-05-17T10:45:38.032Z,35.41
2023-05-17T10:48:06.141Z,35.33
2023-05-17T10:50:34.087Z,34.79
2023-05-17T10:53:01.905Z,35.06
2023-05-17T10:55:29.853Z,35.28
2023-05-17T10:57:58.086Z,34.27
2023-05-17T11:00:29.686Z,34.48
2023-05-17T11:02:57.756Z,34.11
2023-05-17T11:05:26.052Z,34.89
2023-05-17T11:07:54.271Z,33.85
2023-05-17T11:10:22.794Z,34.74
2023-05-17T11:12:55.434Z,35.28
2023-05-17T11:15:23.383Z,34.89
2023-05-17T11:17:51.687Z,34.57
2023-05-17T11:20:19.750Z,35.49
2023-05-17T11:22:47.778Z,35.05
2023-05-17T11:25:15.685Z,35.01
2023-05-17T11:27:43.500Z,35.00
2023-05-17T11:30:11.368Z,35.19
2023-05-17T11:32:39.244Z,35.42
2023-05-17T11:35:07.124Z,35.44
2023-05-17T11:37:34.947Z,35.55
2023-05-17T11:40:02.932Z,35.62
2023-05-17T11:42:31.051Z,35.54
2023-05-17T11:44:59.424Z,35.10
2023-05-17T11:47:27.401Z,35.25
2023-05-17T11:50:01.392Z,35.12
2023-05-17T11:52:29.490Z,35.04
2023-05-17T11:54:57.491Z,34.97
2023-05-17T11:57:27.235Z,34.95
2023-05-17T11:59:56.068Z,34.37
2023-05-17T12:02:23.977Z,35.18
2023-05-17T12:04:51.876Z,34.94
2023-05-17T12:07:19.921Z,34.32
2023-05-17T12:09:47.810Z,35.46
2023-05-17T12:12:16.502Z,34.68
2023-05-17T12:14:44.410Z,35.16
2023-05-17T12:17:13.174Z,34.22
2023-05-17T12:19:41.204Z,35.32
2023-05-17T12:22:12.616Z,35.00
2023-05-17T12:24:41.041Z,35.03
2023-05-17T12:27:09.024Z,35.13
2023-05-17T12:29:36.935Z,35.34
2023-05-17T12:32:05.346Z,35.02
2023-05-17T12:34:33.177Z,35.24
2023-05-17T12:37:01.099Z,35.67
2023-05-17T12:39:29.035Z,34.77
2023-05-17T12:41:57.319Z,35.47
2023-05-17T12:44:25.182Z,36.00
2023-05-17T12:46:54.194Z,35.63
2023-05-17T12:49:22.829Z,35.84
2023-05-17T12:51:50.650Z,35.40
2023-05-17T12:54:18.524Z,35.56
2023-05-17T12:56:46.596Z,35.38
2023-05-17T12:59:14.604Z,35.73
2023-05-17T13:01:42.468Z,36.09
2023-05-17T13:04:10.432Z,35.51
2023-05-17T13:06:38.359Z,35.26
2023-05-17T13:09:06.259Z,35.66
2023-05-17T13:11:36.084Z,35.68
2023-05-17T13:14:03.926Z,35.35
2023-05-17T13:16:31.842Z,35.38
2023-05-17T13:18:59.733Z,34.91
2023-05-17T13:21:27.622Z,35.80
2023-05-17T13:23:55.526Z,35.33
2023-05-17T13:26:23.477Z,36.03
2023-05-17T13:28:51.454Z,35.61
2023-05-17T13:31:19.398Z,36.12
2023-05-17T13:33:50.180Z,36.00
2023-05-17T13:36:18.229Z,35.19
2023-05-17T13:38:46.126Z,34.35
2023-05-17T13:41:14.030Z,34.58
2023-05-17T13:43:41.881Z,34.52
2023-05-17T13:46:09.758Z,34.82
2023-05-17T13:48:39.683Z,35.46
2023-05-17T13:51:08.981Z,35.46
2023-05-17T13:53:38.756Z,34.77
2023-05-17T13:56:06.705Z,35.61
2023-05-17T13:58:34.569Z,35.64
2023-05-17T14:01:02.554Z,35.41
2023-05-17T14:03:30.476Z,35.95
2023-05-17T14:05:58.425Z,35.60
2023-05-17T14:08:27.173Z,35.67
2023-05-17T14:10:55.012Z,34.48
2023-05-17T14:13:22.903Z,34.99
2023-05-17T14:15:50.795Z,32.28
2023-05-17T14:18:18.799Z,33.12
2023-05-17T14:20:47.188Z,32.42
2023-05-17T14:23:15.074Z,31.71
2023-05-17T14:25:43.837Z,32.99
2023-05-17T14:28:12.338Z,33.40
2023-05-17T14:30:40.248Z,33.45
2023-05-17T14:33:08.185Z,33.65
2023-05-17T14:35:36.081Z,31.93
2023-05-17T14:38:03.933Z,31.83
2023-05-17T14:40:31.865Z,33.53
2023-05-17T14:42:59.835Z,31.98
2023-05-17T14:45:27.699Z,33.60
2023-05-17T14:47:55.941Z,32.10
2023-05-17T14:50:23.803Z,33.56
2023-05-17T14:52:51.670Z,32.95
2023-05-17T14:55:20.011Z,33.62
2023-05-17T14:57:47.964Z,31.96
2023-05-17T15:00:15.964Z,31.33
2023-05-17T15:02:44.108Z,33.56
2023-05-17T15:05:15.161Z,33.79
2023-05-17T15:07:43.325Z,33.50
2023-05-17T15:10:13.105Z,34.41
2023-05-17T15:12:41.028Z,32.45
2023-05-17T15:15:08.946Z,32.46
2023-05-17T15:17:37.081Z,33.20
2023-05-17T15:20:05.070Z,34.17
2023-05-17T15:22:33.184Z,32.13
2023-05-17T15:25:01.106Z,34.84
2023-05-17T15:27:29.062Z,35.02
2023-05-17T15:29:57.067Z,34.25
2023-05-17T15:32:25.018Z,33.44
2023-05-17T15:34:53.177Z,34.90
2023-05-17T15:37:21.087Z,33.87
2023-05-17T15:39:49.041Z,34.04
2023-05-17T15:42:16.912Z,33.33
2023-05-17T15:44:44.750Z,32.89
2023-05-17T15:47:12.670Z,33.27
2023-05-17T15:49:41.401Z,34.19
2023-05-17T15:52:09.378Z,33.51
2023-05-17T15:54:37.242Z,32.87
2023-05-17T15:57:05.084Z,34.73
2023-05-17T15:59:32.897Z,34.18
2023-05-17T16:02:00.781Z,34.64
2023-05-17T16:04:28.681Z,34.55
2023-05-17T16:06:56.604Z,33.79
2023-05-17T16:09:24.480Z,34.00
2023-05-17T16:11:52.313Z,34.87
2023-05-17T16:14:20.232Z,34.73
2023-05-17T16:16:48.063Z,34.38
2023-05-17T16:19:16.057Z,34.06
2023-05-17T16:21:44.554Z,34.39
2023-05-17T16:24:12.462Z,33.82
2023-05-17T16:26:40.322Z,33.55
2023-05-17T16:29:08.235Z,34.56
2023-05-17T16:31:36.388Z,34.33
2023-05-17T16:34:04.352Z,34.26
2023-05-17T16:36:32.260Z,34.17
2023-05-17T16:39:00.146Z,34.58
2023-05-17T16:41:28.859Z,34.68
2023-05-17T16:43:56.855Z,34.54
2023-05-17T16:46:25.512Z,35.03
2023-05-17T16:48:55.756Z,35.60
2023-05-17T16:51:24.377Z,35.32
2023-05-17T16:53:52.382Z,35.23
2023-05-17T16:56:20.292Z,34.95
2023-05-17T16:58:48.241Z,35.04
2023-05-17T17:01:16.889Z,35.35
2023-05-17T17:03:44.951Z,35.02
2023-05-17T17:06:12.951Z,34.49
2023-05-17T17:08:41.881Z,35.32
2023-05-17T17:11:09.841Z,34.84
2023-05-17T17:13:38.258Z,34.11
2023-05-17T17:16:06.338Z,34.24
2023-05-17T17:18:34.416Z,33.48
2023-05-17T17:21:04.804Z,33.85
2023-05-17T17:23:34.371Z,35.01
2023-05-17T17:26:02.557Z,33.39
2023-05-17T17:28:30.632Z,34.58
2023-05-17T17:30:58.752Z,34.10
2023-05-17T17:33:26.910Z,33.96
2023-05-17T17:35:55.099Z,33.34
2023-05-17T17:38:23.094Z,33.84
2023-05-17T17:40:51.096Z,35.18
2023-05-17T17:43:18.891Z,34.81
2023-05-17T17:45:47.652Z,34.48
2023-05-17T17:48:15.635Z,34.07
2023-05-17T17:50:43.678Z,32.87
2023-05-17T17:53:11.751Z,33.97
2023-05-17T17:55:39.755Z,34.36
2023-05-17T17:58:07.674Z,34.28
2023-05-17T18:00:35.621Z,34.34
2023-05-17T18:03:03.542Z,35.13
2023-05-17T18:05:31.485Z,35.02
2023-05-17T18:07:59.386Z,34.00
2023-05-17T18:10:27.530Z,34.66
2023-05-17T18:12:55.566Z,35.03
2023-05-17T18:15:23.438Z,35.12
2023-05-17T18:17:52.228Z,34.87
2023-05-17T18:20:22.215Z,34.37
2023-05-17T18:22:50.149Z,35.29
2023-05-17T18:25:18.018Z,34.90
2023-05-17T18:27:46.180Z,35.12
2023-05-17T18:30:13.997Z,34.73
2023-05-17T18:32:42.322Z,35.35
2023-05-17T18:35:10.503Z,34.09
2023-05-17T18:37:38.359Z,33.93
2023-05-17T18:40:06.364Z,34.84
2023-05-17T18:42:34.258Z,35.37
2023-05-17T18:45:02.158Z,35.57
2023-05-17T18:47:30.073Z,34.94
2023-05-17T18:49:58.019Z,35.41
2023-05-17T18:52:25.989Z,35.01
2023-05-17T18:54:53.912Z,35.31
2023-05-17T18:57:21.680Z,34.78
2023-05-17T18:59:49.622Z,34.86
2023-05-17T19:02:17.452Z,35.72
2023-05-17T19:04:45.397Z,35.29
2023-05-17T19:07:13.345Z,35.41
2023-05-17T19:09:42.445Z,35.30
2023-05-17T19:12:10.388Z,35.32
2023-05-17T19:14:40.253Z,35.94
2023-05-17T19:17:10.050Z,36.12
2023-05-17T19:19:38.061Z,35.91
2023-05-17T19:22:05.964Z,36.08
2023-05-17T19:24:33.903Z,36.04
2023-05-17T19:27:01.829Z,35.79
2023-05-17T19:29:32.659Z,36.04
2023-05-17T19:32:00.495Z,35.55
2023-05-17T19:34:28.663Z,36.13
2023-05-17T19:36:56.615Z,35.95
2023-05-17T19:39:24.472Z,35.72
2023-05-17T19:41:52.304Z,35.95
2023-05-17T19:44:20.261Z,36.05
2023-05-17T19:46:48.356Z,35.91
2023-05-17T19:49:16.663Z,35.82
2023-05-17T19:51:45.321Z,36.32
2023-05-17T19:54:13.264Z,36.65
2023-05-17T19:56:41.104Z,36.45
2023-05-17T19:59:09.142Z,36.20
2023-05-17T20:01:37.057Z,36.50
2023-05-17T20:04:04.937Z,36.69
2023-05-17T20:06:32.928Z,36.62
2023-05-17T20:09:00.836Z,36.36
2023-05-17T20:11:28.846Z,36.36
2023-05-17T20:13:56.727Z,36.64
2023-05-17T20:16:28.050Z,36.65
2023-05-17T20:18:58.173Z,36.88
2023-05-17T20:21:26.603Z,36.91
2023-05-17T20:24:01.508Z,36.07
2023-05-17T20:26:32.057Z,36.88
2023-05-17T20:29:02.268Z,37.08
2023-05-17T20:31:30.131Z,36.81
2023-05-17T20:33:58.067Z,36.81
2023-05-17T20:36:26.184Z,36.18
2023-05-17T20:38:54.103Z,36.87
2023-05-17T20:41:21.961Z,37.04
2023-05-17T20:43:51.939Z,36.85
2023-05-17T20:46:20.069Z,36.94
2023-05-17T20:48:48.615Z,37.39
2023-05-17T20:51:17.756Z,36.96
2023-05-17T20:53:46.470Z,37.18
2023-05-17T20:56:16.212Z,37.33
2023-05-17T20:58:44.010Z,37.34
2023-05-17T21:01:11.898Z,36.99
2023-05-17T21:03:40.220Z,37.44
2023-05-17T21:08:36.308Z,37.07
2023-05-17T21:11:04.156Z,37.29
2023-05-17T21:13:32.160Z,37.16
2023-05-17T21:16:00.228Z,37.04
2023-05-17T21:18:28.131Z,37.06
2023-05-17T21:20:56.313Z,37.10
2023-05-17T21:23:24.183Z,37.53
2023-05-17T21:25:52.126Z,37.36
2023-05-17T21:28:19.941Z,37.26
2023-05-17T21:30:47.914Z,37.39
2023-05-17T21:33:15.762Z,37.41
2023-05-17T21:35:43.622Z,37.27
2023-05-17T21:38:11.522Z,37.60
2023-05-17T21:40:39.363Z,37.79
2023-05-17T21:43:07.928Z,37.57
2023-05-17T21:45:35.879Z,37.49
2023-05-17T21:48:03.915Z,37.21
2023-05-17T21:50:32.238Z,37.88
2023-05-17T21:53:00.509Z,37.27
2023-05-17T21:55:32.381Z,37.32
2023-05-17T21:58:09.033Z,37.60
2023-05-17T22:00:37.612Z,37.21
2023-05-17T22:03:05.567Z,37.71
2023-05-17T22:05:33.437Z,37.27
2023-05-17T22:08:01.424Z,37.27
2023-05-17T22:10:30.587Z,37.36
2023-05-17T22:12:58.627Z,37.40
2023-05-17T22:15:26.522Z,37.42
2023-05-17T22:17:54.354Z,37.31
2023-05-17T22:20:23.868Z,37.17
2023-05-17T22:22:51.912Z,37.28
2023-05-17T22:25:19.842Z,37.34
2023-05-17T22:27:47.950Z,37.15
2023-05-17T22:30:15.881Z,36.76
2023-05-17T22:32:43.809Z,36.82
2023-05-17T22:35:11.743Z,37.13
2023-05-17T22:37:42.415Z,37.05
2023-05-17T22:40:10.917Z,36.71
2023-05-17T22:42:38.820Z,36.74
2023-05-17T22:45:06.679Z,36.88
2023-05-17T22:47:34.719Z,37.06
2023-05-17T22:50:03.286Z,37.00
2023-05-17T22:52:31.492Z,37.00
2023-05-17T22:54:59.387Z,37.10
2023-05-17T22:57:27.385Z,37.07
2023-05-17T22:59:55.327Z,36.98
2023-05-17T23:02:23.250Z,37.15
2023-05-17T23:04:51.152Z,37.00
2023-05-17T23:07:18.956Z,36.84
2023-05-17T23:09:47.202Z,37.27
2023-05-17T23:12:17.429Z,37.19
2023-05-17T23:14:45.416Z,37.27
2023-05-17T23:17:13.284Z,37.00
2023-05-17T23:19:41.270Z,37.15
2023-05-17T23:22:10.809Z,37.05
2023-05-17T23:24:39.004Z,37.14
2023-05-17T23:27:10.180Z,36.79
2023-05-17T23:29:41.457Z,37.11
2023-05-17T23:32:09.544Z,36.41
2023-05-17T23:34:37.732Z,37.16
2023-05-17T23:37:05.818Z,37.18
2023-05-17T23:39:33.632Z,37.22
2023-05-17T23:42:01.648Z,37.15
2023-05-17T23:44:29.596Z,37.30
2023-05-17T23:46:58.151Z,36.96
2023-05-17T23:49:26.464Z,37.24
2023-05-17T23:51:54.576Z,36.93
2023-05-17T23:54:22.916Z,37.44
2023-05-17T23:56:50.821Z,37.21
2023-05-17T23:59:18.693Z,36.89
